Weather History for Nacogdoches, TX

Change the Weather History Date:

Saturday, January 4, 2014

  Actual Average Record
Temperature  
Mean Temperature 47 °F -  
Max Temperature 62 °F 57 °F 75 °F (2006)
Min Temperature 32 °F 36 °F 14 °F (2002)
Degree Days  
Heating Degree Days 18    
Moisture  
Dew Point 40 °F    
Average Humidity 71    
Maximum Humidity 88    
Minimum Humidity 59    
Precipitation  
Precipitation 0.00 in - - ()
Sea Level Pressure  
Sea Level Pressure 30.01 in    
Wind  
Wind Speed 10 mph (SSE)    
Max Wind Speed 20 mph    
Max Gust Speed 26 mph    
Visibility 10 miles    
Events      
Averages and records for this station are not official NWS values.
T = Trace of Precipitation, MM = Missing Value Source: NWS Daily Summary

Daily Weather History Graph

Daily Weather History Graph

Search for Another Location

Airport:

Trip Planner

Search our weather history database for the weather conditions in past years. The results will help you decide how hot, cold, wet, or windy it might be!

Date:

Astronomy

Jan. 04, 2014 Rise Set
Actual Time 7:18 AM CST 5:28 PM CST
Civil Twilight 6:52 AM CST 5:55 PM CST
Nautical Twilight 6:22 AM CST 6:25 PM CST
Astronomical Twilight 5:52 AM CST 6:55 PM CST
Moon 9:40 AM CST (1/4) 9:32 PM CST (1/4)
Length of Visible Light 11h 03m
Length of Day
10h 09m
Waxing Crescent, 15% of the Moon is Illuminated
Jan 4
Waxing Crescent
Jan 7
First Quarter
Jan 15
Full
Jan 23
Last Quarter
Jan 30
New

Hourly Weather History & Observations

Time (CST) Temp. Windchill Dew Point Humidity Pressure Visibility Wind Dir Wind Speed Gust Speed Precip Events Conditions
12:15 AM 37.4 °F 30.3 °F 24.8 °F 60% 30.19 in 10.0 mi SSE 10.4 mph - N/A   Clear
12:35 AM 35.6 °F 29.2 °F 24.8 °F 65% 30.19 in 10.0 mi South 8.1 mph - N/A   Clear
12:55 AM 35.6 °F 28.6 °F 24.8 °F 65% 30.18 in 10.0 mi South 9.2 mph - N/A   Clear
1:15 AM 35.6 °F 29.2 °F 24.8 °F 65% 30.18 in 10.0 mi South 8.1 mph - N/A   Clear
1:35 AM 35.6 °F 29.9 °F 24.8 °F 65% 30.17 in 10.0 mi South 6.9 mph - N/A   Clear
1:55 AM 33.8 °F 26.4 °F 24.8 °F 70% 30.17 in 10.0 mi SSE 9.2 mph - N/A   Clear
2:15 AM 33.8 °F 27.0 °F 24.8 °F 70% 30.15 in 10.0 mi SE 8.1 mph - N/A   Clear
2:35 AM 32.0 °F 25.6 °F 24.8 °F 75% 30.15 in 10.0 mi SE 6.9 mph - N/A   Clear
2:55 AM 32.0 °F 25.6 °F 24.8 °F 75% 30.15 in 10.0 mi SSE 6.9 mph - N/A   Clear
3:15 AM 33.8 °F 27.7 °F 24.8 °F 70% 30.14 in 10.0 mi SSE 6.9 mph - N/A   Clear
3:35 AM 33.8 °F 27.0 °F 26.6 °F 75% 30.14 in 10.0 mi SSE 8.1 mph - N/A   Clear
3:55 AM 33.8 °F 27.7 °F 24.8 °F 70% 30.13 in 10.0 mi SSE 6.9 mph - N/A   Clear
4:15 AM 32.0 °F 25.6 °F 26.6 °F 80% 30.12 in 10.0 mi SE 6.9 mph - N/A   Clear
4:35 AM 32.0 °F 26.4 °F 26.6 °F 80% 30.12 in 10.0 mi SE 5.8 mph - N/A   Clear
4:55 AM 32.0 °F 25.6 °F 26.6 °F 80% 30.12 in 10.0 mi SE 6.9 mph - N/A   Clear
5:15 AM 32.0 °F 25.6 °F 26.6 °F 80% 30.12 in 10.0 mi SE 6.9 mph - N/A   Clear
5:35 AM 33.8 °F 27.7 °F 26.6 °F 75% 30.11 in 10.0 mi SE 6.9 mph - N/A   Clear
5:55 AM 33.8 °F 27.7 °F 28.4 °F 81% 30.11 in 10.0 mi SE 6.9 mph - N/A   Clear
6:15 AM 33.8 °F 29.6 °F 28.4 °F 81% 30.11 in 10.0 mi SE 4.6 mph - N/A   Clear
6:35 AM 33.8 °F 29.6 °F 30.2 °F 87% 30.11 in 10.0 mi SSE 4.6 mph - N/A   Mostly Cloudy
6:55 AM 35.6 °F 29.9 °F 30.2 °F 81% 30.11 in 10.0 mi SSE 6.9 mph - N/A   Overcast
7:15 AM 35.6 °F 29.2 °F 30.2 °F 81% 30.11 in 10.0 mi SSE 8.1 mph - N/A   Overcast
7:35 AM 37.4 °F 32.1 °F 32.0 °F 81% 30.11 in 10.0 mi SSE 6.9 mph - N/A   Overcast
7:55 AM 37.4 °F 32.1 °F 32.0 °F 81% 30.11 in 10.0 mi SSE 6.9 mph - N/A   Overcast
8:15 AM 39.2 °F 34.2 °F 33.8 °F 81% 30.10 in 10.0 mi SSE 6.9 mph - N/A   Overcast
8:35 AM 39.2 °F 33.6 °F 33.8 °F 81% 30.10 in 10.0 mi SSE 8.1 mph - N/A   Overcast
8:55 AM 41.0 °F 36.4 °F 35.6 °F 81% 30.10 in 10.0 mi SSE 6.9 mph - N/A   Overcast
9:15 AM 42.8 °F 38.0 °F 35.6 °F 76% 30.09 in 10.0 mi SSE 8.1 mph - N/A   Overcast
9:35 AM 44.6 °F 40.2 °F 37.4 °F 76% 30.09 in 10.0 mi South 8.1 mph - N/A   Mostly Cloudy
9:55 AM 48.2 °F - 39.2 °F 71% 30.08 in 10.0 mi South 10.4 mph 16.1 mph N/A   Partly Cloudy
10:15 AM 51.8 °F - 41.0 °F 67% 30.08 in 10.0 mi South 10.4 mph 18.4 mph N/A   Mostly Cloudy
10:35 AM 51.8 °F - 42.8 °F 71% 30.07 in 10.0 mi South 15.0 mph - N/A   Mostly Cloudy
10:55 AM 55.4 °F - 42.8 °F 63% 30.06 in 10.0 mi South 19.6 mph 24.2 mph N/A   Mostly Cloudy
11:15 AM 55.4 °F - 44.6 °F 67% 30.05 in 10.0 mi South 13.8 mph 25.3 mph N/A   Mostly Cloudy
11:35 AM 57.2 °F - 44.6 °F 63% 30.03 in 10.0 mi South 15.0 mph 20.7 mph N/A   Scattered Clouds
11:55 AM 57.2 °F - 44.6 °F 63% 30.02 in 10.0 mi South 18.4 mph 25.3 mph N/A   Mostly Cloudy
12:15 PM 57.2 °F - 44.6 °F 63% 30.00 in 10.0 mi South 12.7 mph 24.2 mph N/A   Overcast
12:35 PM 59.0 °F - 46.4 °F 63% 29.98 in 10.0 mi South 12.7 mph 18.4 mph N/A   Overcast
12:55 PM 59.0 °F - 46.4 °F 63% 29.98 in 10.0 mi South 13.8 mph - N/A   Overcast
1:15 PM 60.8 °F - 48.2 °F 63% 29.96 in 10.0 mi South 13.8 mph 19.6 mph N/A   Overcast
1:35 PM 60.8 °F - 48.2 °F 63% 29.96 in 10.0 mi SSW 16.1 mph 21.9 mph N/A   Overcast
1:55 PM 62.6 °F - 48.2 °F 59% 29.95 in 10.0 mi South 17.3 mph 23.0 mph N/A   Overcast
2:15 PM 62.6 °F - 48.2 °F 59% 29.94 in 10.0 mi SSW 12.7 mph 23.0 mph N/A   Overcast
2:35 PM 62.6 °F - 48.2 °F 59% 29.93 in 10.0 mi South 13.8 mph - N/A   Overcast
2:55 PM 62.6 °F - 48.2 °F 59% 29.92 in 10.0 mi South 15.0 mph 20.7 mph N/A   Overcast
3:15 PM 62.6 °F - 48.2 °F 59% 29.91 in 10.0 mi South 13.8 mph 23.0 mph N/A   Overcast
3:35 PM 62.6 °F - 48.2 °F 59% 29.91 in 10.0 mi South 13.8 mph 26.5 mph N/A   Overcast
3:55 PM 62.6 °F - 48.2 °F 59% 29.90 in 10.0 mi South 17.3 mph 20.7 mph N/A   Overcast
4:15 PM 60.8 °F - 48.2 °F 63% 29.90 in 10.0 mi South 11.5 mph 26.5 mph N/A   Overcast
4:35 PM 60.8 °F - 48.2 °F 63% 29.89 in 10.0 mi South 17.3 mph 23.0 mph N/A   Mostly Cloudy
4:55 PM 60.8 °F - 48.2 °F 63% 29.89 in 10.0 mi South 13.8 mph 21.9 mph N/A   Overcast
5:15 PM 60.8 °F - 48.2 °F 63% 29.89 in 10.0 mi South 13.8 mph 21.9 mph N/A   Overcast
5:35 PM 60.8 °F - 48.2 °F 63% 29.88 in 10.0 mi South 15.0 mph 20.7 mph N/A   Overcast
5:55 PM 59.0 °F - 48.2 °F 67% 29.89 in 10.0 mi South 15.0 mph 20.7 mph N/A   Overcast
6:15 PM 59.0 °F - 48.2 °F 67% 29.89 in 10.0 mi South 15.0 mph 20.7 mph N/A   Overcast
6:35 PM 59.0 °F - 48.2 °F 67% 29.89 in 10.0 mi South 10.4 mph - N/A   Overcast
6:55 PM 59.0 °F - 48.2 °F 67% 29.90 in 10.0 mi South 12.7 mph 20.7 mph N/A   Overcast
7:15 PM 57.2 °F - 48.2 °F 72% 29.90 in 10.0 mi South 15.0 mph 20.7 mph N/A   Overcast
7:35 PM 57.2 °F - 48.2 °F 72% 29.90 in 10.0 mi South 11.5 mph 19.6 mph N/A   Overcast
7:55 PM 57.2 °F - 48.2 °F 72% 29.90 in 10.0 mi South 12.7 mph 17.3 mph N/A   Overcast
8:15 PM 57.2 °F - 48.2 °F 72% 29.90 in 10.0 mi South 13.8 mph 18.4 mph N/A   Overcast
8:35 PM 57.2 °F - 48.2 °F 72% 29.90 in 10.0 mi SSE 9.2 mph - N/A   Overcast
8:55 PM 57.2 °F - 48.2 °F 72% 29.90 in 10.0 mi SSE 10.4 mph - N/A   Overcast
9:15 PM 55.4 °F - 48.2 °F 77% 29.90 in 10.0 mi SSE 9.2 mph - N/A   Overcast
9:35 PM 55.4 °F - 50.0 °F 82% 29.90 in 10.0 mi SSE 9.2 mph - N/A   Overcast
9:55 PM 55.4 °F - 48.2 °F 77% 29.90 in 10.0 mi SSE 10.4 mph - N/A   Overcast
10:15 PM 55.4 °F - 50.0 °F 82% 29.90 in 10.0 mi SSE 9.2 mph - N/A   Overcast
10:35 PM 55.4 °F - 50.0 °F 82% 29.89 in 10.0 mi South 8.1 mph - N/A   Overcast
10:55 PM 55.4 °F - 50.0 °F 82% 29.89 in 10.0 mi SSE 10.4 mph - N/A   Overcast
11:15 PM 55.4 °F - 50.0 °F 82% 29.88 in 10.0 mi SSE 11.5 mph 19.6 mph N/A   Overcast
11:35 PM 55.4 °F - 50.0 °F 82% 29.87 in 10.0 mi SSE 10.4 mph - N/A   Overcast
11:55 PM 55.4 °F - 51.8 °F 88% 29.87 in 10.0 mi South 11.5 mph 17.3 mph N/A   Overcast